Impacts TAF Board
For situational awareness. Not to be used for flight planning purposes.
IDs:

KACT - Waco Rgnl, TX, US

Issued at 2106 UTC 21 May 2022
Updated at 2246 UTC 21 May 2022
Potential Impact None Slight Moderate High
Time2151Z 21/23Z 22/00Z 22/01Z 22/02Z 22/03Z 22/04Z 22/05Z 22/06Z 22/07Z 22/08Z 22/09Z 22/10Z 22/11Z>>
Type OBS PRVL PRVL PRVL PRVL PRVL PRVL PRVL PRVL PRVL PRVL PRVL PRVL PRVL
VIS 10 >6 >6 >6 >6 >6 >6 >6 >6 >6 >6 >6 >6 >6
CIG -- 80 100 100 100 25 25 25 25 25 18 18 18 18
Cover CLR BKN BKN BKN BKN BKN BKN BKN BKN BKN BKN BKN BKN BKN
FltCat VFR VFR VFR VFR VFR MVFR MVFR MVFR MVFR MVFR MVFR MVFR MVFR MVFR
WX -- VCTS VCTS VCTS VCTS VCSH VCSH VCSH VCSH VCSH -- -- -- --
WDir 150 240 340 340 340 350 350 350 350 350 10 10 10 10
WSpd 9 8 17 17 17 14 14 14 14 14 14 14 14 14
WGst -- -- 27 27 27 -- -- -- -- -- -- -- -- --
WSHgt -- -- -- -- -- -- -- -- -- -- -- -- -- --
WSDir -- -- -- -- -- -- -- -- -- -- -- -- -- --
WSSpd -- -- -- -- -- -- -- -- -- -- -- -- -- --
Raw TAF
KACT 212106Z 2121/2218 15011KT P6SM SCT020 SCT250
  FM212300 24008KT P6SM VCTS BKN080CB
  FM220000 34017G27KT P6SM VCTS SCT045CB BKN100
  FM220300 35014KT P6SM VCSH BKN025
  FM220800 01014KT P6SM BKN018
  FM221400 01014KT P6SM BKN025


Raw METAR
KACT 212151Z 15009KT 10SM CLR 34/20 A2983 RMK AO2 SLP091 T03440200
KACT 212051Z 13006KT 10SM CLR 35/21 A2984 RMK AO2 SLP094 T03500206 58009
KACT 211951Z 19009KT 10SM CLR 34/21 A2986 RMK AO2 SLP102 T03440206

METAR Board
Radar Display
Forecast Discussion
For situational awareness. Not to be used for flight planning purposes.